Time;durP1;ratioP1;P1;durP2;ratioP2;P2;SDS_P1;SDS_P2;PMS_P1;PMS_P2;Temp;Humidity;BMP_temperature;BMP_pressure;BME280_temperature;BME280_humidity;BME280_pressure;Samples;Min_cycle;Max_cycle;Signal;HPM_P1;HPM_P2
2023/09/25 00:00:31;;;;;;;3.17;2.40;;;;;;;9.07;100.00;97140.16;4973815;28;105469;-76
2023/09/25 00:02:59;;;;;;;4.37;2.77;;;;;;;9.11;100.00;97129.91;4974634;28;101918;-76
2023/09/25 00:05:26;;;;;;;2.80;2.30;;;;;;;9.05;100.00;97133.44;4974261;28;105072;-76
2023/09/25 00:07:55;;;;;;;3.13;2.77;;;;;;;8.98;100.00;97130.88;4991704;28;102782;-77
2023/09/25 00:10:23;;;;;;;2.50;2.30;;;;;;;8.99;100.00;97137.78;4974356;28;101899;-77
2023/09/25 00:12:51;;;;;;;2.70;2.50;;;;;;;8.89;100.00;97136.69;4977114;28;105140;-76
2023/09/25 00:15:18;;;;;;;3.03;2.50;;;;;;;8.77;100.00;97139.25;4974311;28;101859;-76
2023/09/25 00:17:45;;;;;;;2.60;2.40;;;;;;;8.87;100.00;97134.25;4974339;28;104963;-76
2023/09/25 00:20:12;;;;;;;2.90;2.70;;;;;;;8.86;100.00;97137.13;4973510;28;105207;-76
2023/09/25 00:22:39;;;;;;;2.90;2.60;;;;;;;8.67;100.00;97143.47;4991960;28;101827;-76
2023/09/25 00:25:09;;;;;;;2.50;2.30;;;;;;;8.81;100.00;97142.28;4973969;28;105640;-76
2023/09/25 00:27:36;;;;;;;2.90;2.53;;;;;;;8.69;100.00;97128.13;4973382;28;104031;-76
2023/09/25 00:30:06;;;;;;;2.93;2.43;;;;;;;8.69;100.00;97136.09;4973910;28;101908;-76
2023/09/25 00:32:34;;;;;;;2.90;2.70;;;;;;;8.69;100.00;97125.50;4976897;28;103961;-76
2023/09/25 00:35:05;;;;;;;2.63;2.43;;;;;;;8.68;100.00;97123.88;4973018;28;102015;-75
2023/09/25 00:37:32;;;;;;;3.93;3.07;;;;;;;8.50;100.00;97118.56;4973934;28;105597;-75
2023/09/25 00:39:59;;;;;;;5.33;3.10;;;;;;;8.39;100.00;97121.94;4973363;28;105419;-75
2023/09/25 00:42:27;;;;;;;3.00;2.70;;;;;;;8.43;100.00;97125.75;4973772;28;101900;-75
2023/09/25 00:44:54;;;;;;;3.57;2.87;;;;;;;8.29;100.00;97117.13;4973913;28;105255;-75
2023/09/25 00:47:21;;;;;;;2.87;2.50;;;;;;;8.42;100.00;97130.25;4973155;28;105654;-76
2023/09/25 00:49:48;;;;;;;3.07;2.40;;;;;;;8.45;100.00;97134.31;4973819;28;102024;-76
2023/09/25 00:52:16;;;;;;;2.90;2.37;;;;;;;8.47;100.00;97132.25;4973736;28;105269;-76
2023/09/25 00:54:44;;;;;;;2.77;2.57;;;;;;;8.44;100.00;97130.84;4976405;28;105444;-76
2023/09/25 00:57:12;;;;;;;2.57;2.37;;;;;;;8.28;100.00;97130.59;4973795;28;105216;-76
2023/09/25 00:59:41;;;;;;;3.97;2.73;;;;;;;8.26;100.00;97124.69;4972964;28;105614;-76
2023/09/25 01:02:08;;;;;;;3.10;2.80;;;;;;;8.26;100.00;97130.00;4973370;28;101921;-76
2023/09/25 01:04:36;;;;;;;3.50;2.63;;;;;;;8.20;100.00;97120.28;4973527;28;105039;-76
2023/09/25 01:07:04;;;;;;;3.03;2.33;;;;;;;7.98;100.00;97119.00;4972761;28;105552;-76
2023/09/25 01:09:31;;;;;;;3.00;2.80;;;;;;;8.02;100.00;97118.34;4973345;28;101893;-76
2023/09/25 01:11:58;;;;;;;2.80;2.60;;;;;;;7.98;100.00;97121.66;4973521;28;105049;-75
2023/09/25 01:14:24;;;;;;;3.40;3.07;;;;;;;7.98;100.00;97125.13;4972751;28;105632;-75
2023/09/25 01:16:53;;;;;;;3.13;2.73;;;;;;;7.96;100.00;97137.75;4976819;28;101868;-75
2023/09/25 01:19:20;;;;;;;3.93;3.03;;;;;;;7.90;100.00;97127.22;4972673;28;105335;-75
2023/09/25 01:21:49;;;;;;;4.70;3.17;;;;;;;7.84;100.00;97136.00;4973221;28;101876;-75
2023/09/25 01:24:17;;;;;;;4.70;3.13;;;;;;;8.02;100.00;97131.59;4973005;28;104900;-75
2023/09/25 01:26:44;;;;;;;3.00;2.70;;;;;;;8.01;100.00;97127.31;4972511;28;105544;-75
2023/09/25 01:29:11;;;;;;;4.37;2.83;;;;;;;7.98;100.00;97129.59;4973126;28;101824;-75
2023/09/25 01:31:38;;;;;;;3.63;3.00;;;;;;;7.99;100.00;97129.38;4973360;28;104814;-75
2023/09/25 01:34:05;;;;;;;3.33;2.57;;;;;;;8.00;100.00;97124.88;4972046;28;105684;-76
2023/09/25 01:36:32;;;;;;;3.20;2.90;;;;;;;7.89;100.00;97122.94;4973109;28;101755;-76
2023/09/25 01:39:02;;;;;;;3.10;2.90;;;;;;;7.82;100.00;97130.13;4975893;28;105339;-76
2023/09/25 01:41:29;;;;;;;3.23;2.80;;;;;;;7.90;100.00;97125.38;4973203;28;101824;-76
2023/09/25 01:43:56;;;;;;;3.43;2.93;;;;;;;7.95;100.00;97124.72;4972843;28;105517;-75
2023/09/25 01:46:23;;;;;;;3.33;2.90;;;;;;;7.98;100.00;97121.66;4972338;28;105292;-75
2023/09/25 01:48:50;;;;;;;3.10;2.90;;;;;;;7.93;100.00;97114.38;4972922;28;101864;-76
2023/09/25 01:51:17;;;;;;;3.20;3.00;;;;;;;7.85;100.00;97114.63;4972911;28;103543;-75
2023/09/25 01:53:46;;;;;;;3.57;2.90;;;;;;;7.83;100.00;97113.19;4972178;28;105401;-75
2023/09/25 01:56:14;;;;;;;3.30;3.00;;;;;;;7.87;100.00;97109.94;4972794;28;102098;-75
2023/09/25 01:58:43;;;;;;;2.87;2.67;;;;;;;7.88;100.00;97113.38;4972698;28;104835;-75
2023/09/25 02:01:10;;;;;;;2.93;2.50;;;;;;;7.63;100.00;97112.56;4975784;28;105627;-75
2023/09/25 02:03:37;;;;;;;3.77;3.00;;;;;;;7.69;100.00;97107.19;4972895;28;105470;-75
2023/09/25 02:06:06;;;;;;;3.90;3.00;;;;;;;7.54;100.00;97106.72;4972252;28;104946;-75
2023/09/25 02:08:33;;;;;;;3.53;3.10;;;;;;;7.54;100.00;97113.81;4972543;28;101857;-76
2023/09/25 02:11:00;;;;;;;3.13;2.83;;;;;;;7.37;100.00;97115.38;4972329;28;105559;-76
2023/09/25 02:13:29;;;;;;;3.60;3.30;;;;;;;7.37;100.00;97113.50;4972132;28;104265;-76
2023/09/25 02:15:56;;;;;;;3.37;3.07;;;;;;;7.43;100.00;97111.88;4972572;28;102406;-76
2023/09/25 02:18:23;;;;;;;4.83;3.10;;;;;;;7.45;100.00;97110.63;4972633;28;105304;-76
2023/09/25 02:20:51;;;;;;;2.97;2.67;;;;;;;7.56;100.00;97111.75;4972049;28;105313;-76
2023/09/25 02:23:19;;;;;;;3.53;2.80;;;;;;;7.67;100.00;97103.97;4975846;28;101736;-76
2023/09/25 02:25:45;;;;;;;5.47;3.30;;;;;;;7.58;100.00;97099.94;4971421;28;105486;-76
2023/09/25 02:28:12;;;;;;;4.63;3.70;;;;;;;7.62;100.00;97100.31;4972333;28;101843;-76
2023/09/25 02:30:41;;;;;;;6.17;3.93;;;;;;;7.65;100.00;97086.66;4972434;28;104893;-76
2023/09/25 02:33:09;;;;;;;3.70;3.30;;;;;;;7.54;100.00;97092.66;4971832;28;104445;-75
2023/09/25 02:35:38;;;;;;;4.07;3.00;;;;;;;7.41;100.00;97090.09;4968815;28;101869;-75
2023/09/25 02:38:05;;;;;;;3.20;2.90;;;;;;;7.51;100.00;97091.25;4969283;28;105236;-75
2023/09/25 02:40:33;;;;;;;3.90;2.90;;;;;;;7.54;100.00;97090.84;4968292;28;105185;-75
2023/09/25 02:43:00;;;;;;;3.33;2.77;;;;;;;7.56;100.00;97080.00;4972213;28;101874;-75
2023/09/25 02:45:28;;;;;;;3.13;2.90;;;;;;;7.59;100.00;97084.88;4968488;28;105286;-75
2023/09/25 02:47:57;;;;;;;3.20;2.90;;;;;;;7.64;100.00;97075.25;4968986;28;102280;-75
2023/09/25 02:50:25;;;;;;;3.10;2.80;;;;;;;7.69;100.00;97079.94;4968921;28;105206;-75
2023/09/25 02:52:52;;;;;;;2.60;2.40;;;;;;;7.59;100.00;97074.31;4968413;28;105045;-75
2023/09/25 02:55:20;;;;;;;4.10;2.63;;;;;;;7.57;100.00;97065.75;4968904;28;101932;-75
2023/09/25 02:57:46;;;;;;;2.90;2.70;;;;;;;7.41;100.00;97069.72;4970579;28;103650;-75
2023/09/25 03:00:14;;;;;;;2.90;2.70;;;;;;;7.33;100.00;97072.66;4971653;28;104116;-75
2023/09/25 03:02:43;;;;;;;2.80;2.60;;;;;;;7.22;100.00;97069.84;4972194;28;101998;-75
2023/09/25 03:05:12;;;;;;;3.03;2.73;;;;;;;7.30;100.00;97069.63;4976168;28;102726;-75
2023/09/25 03:07:39;;;;;;;2.60;2.40;;;;;;;7.31;100.00;97068.59;4972092;28;101920;-75
2023/09/25 03:10:07;;;;;;;4.07;2.87;;;;;;;7.12;100.00;97057.09;4971915;28;105154;-75
2023/09/25 03:12:34;;;;;;;3.10;2.80;;;;;;;7.08;100.00;97060.38;4971723;28;104575;-75
2023/09/25 03:15:02;;;;;;;2.37;2.17;;;;;;;7.09;100.00;97052.22;4972376;28;102044;-75
2023/09/25 03:17:29;;;;;;;2.90;2.70;;;;;;;7.02;100.00;97051.47;4971837;28;104853;-75
2023/09/25 03:19:58;;;;;;;4.27;3.20;;;;;;;7.13;100.00;97049.97;4971316;28;102806;-75
2023/09/25 03:22:27;;;;;;;3.20;2.90;;;;;;;7.19;100.00;97054.44;4971908;28;101850;-76
2023/09/25 03:24:54;;;;;;;2.90;2.70;;;;;;;7.03;100.00;97053.06;4971660;28;105179;-75
2023/09/25 03:27:22;;;;;;;3.13;2.50;;;;;;;6.99;100.00;97053.72;4974603;28;105874;-75
2023/09/25 03:29:49;;;;;;;2.70;2.50;;;;;;;7.00;100.00;97064.09;4971596;28;105545;-75
2023/09/25 03:32:17;;;;;;;4.20;2.77;;;;;;;6.98;100.00;97049.47;4971193;28;104148;-75
2023/09/25 03:34:45;;;;;;;3.37;2.90;;;;;;;6.92;100.00;97052.94;4971351;28;101964;-75
2023/09/25 03:37:12;;;;;;;3.47;3.17;;;;;;;6.99;100.00;97056.38;4971648;28;104878;-75
2023/09/25 03:39:41;;;;;;;3.30;3.00;;;;;;;7.02;100.00;97056.75;4970965;28;105181;-75
2023/09/25 03:42:08;;;;;;;3.30;3.00;;;;;;;6.85;100.00;97057.44;4971618;28;101843;-75
2023/09/25 03:44:39;;;;;;;3.40;3.10;;;;;;;6.87;100.00;97058.06;4971699;28;103710;-75
2023/09/25 03:47:06;;;;;;;4.47;3.13;;;;;;;6.99;100.00;97061.66;4971017;28;104252;-75
2023/09/25 03:49:33;;;;;;;3.20;2.90;;;;;;;6.79;100.00;97058.28;4974866;28;102006;-75
2023/09/25 03:52:00;;;;;;;3.03;2.80;;;;;;;6.87;100.00;97058.06;4970909;28;105076;-75
2023/09/25 03:54:29;;;;;;;3.40;3.03;;;;;;;6.78;100.00;97064.59;4971324;28;101890;-75
2023/09/25 03:56:57;;;;;;;3.00;2.80;;;;;;;6.79;100.00;97058.28;4971262;28;104458;-75
2023/09/25 03:59:25;;;;;;;2.70;2.53;;;;;;;6.77;100.00;97063.78;4970740;28;105100;-75
2023/09/25 04:01:52;;;;;;;2.90;2.70;;;;;;;6.72;100.00;97060.94;4971096;28;101940;-75
2023/09/25 04:04:19;;;;;;;3.30;3.00;;;;;;;6.81;100.00;97059.69;4971159;28;105208;-75
2023/09/25 04:06:47;;;;;;;4.00;3.23;;;;;;;6.76;100.00;97056.88;4970387;28;105864;-76
2023/09/25 04:09:15;;;;;;;3.77;3.10;;;;;;;6.74;100.00;97053.63;4969947;28;101878;-76
2023/09/25 04:11:44;;;;;;;4.17;2.93;;;;;;;6.84;100.00;97058.47;4973911;28;105392;-75
2023/09/25 04:14:12;;;;;;;4.40;2.73;;;;;;;6.78;100.00;97057.50;4970933;28;102056;-75
2023/09/25 04:16:39;;;;;;;4.27;3.57;;;;;;;6.71;100.00;97059.34;4970994;28;104057;-75
2023/09/25 04:19:06;;;;;;;5.00;3.53;;;;;;;6.82;100.00;97063.16;4970345;28;103390;-73
2023/09/25 04:21:33;;;;;;;5.07;4.00;;;;;;;6.82;100.00;97049.94;4970956;28;101973;-74
2023/09/25 04:24:02;;;;;;;4.27;3.87;;;;;;;6.81;100.00;97054.41;4970687;28;105789;-74
2023/09/25 04:26:29;;;;;;;3.60;3.30;;;;;;;6.84;100.00;97056.66;4970100;28;105400;-75
2023/09/25 04:28:57;;;;;;;3.87;3.47;;;;;;;6.83;100.00;97044.44;4970771;28;101933;-75
2023/09/25 04:31:26;;;;;;;4.87;3.60;;;;;;;6.62;100.00;97050.03;4970645;28;104346;-73
2023/09/25 04:33:53;;;;;;;3.70;3.37;;;;;;;6.75;100.00;97046.50;4975561;28;101765;-73
2023/09/25 04:36:23;;;;;;;4.20;3.30;;;;;;;6.79;100.00;97045.06;4991969;28;102588;-76
2023/09/25 04:38:50;;;;;;;3.67;3.37;;;;;;;6.84;100.00;97042.59;4973242;28;105416;-77
2023/09/25 04:41:17;;;;;;;3.70;3.40;;;;;;;6.83;100.00;97041.00;4973855;28;101983;-75
2023/09/25 04:43:44;;;;;;;3.47;2.90;;;;;;;6.85;100.00;97044.22;4973902;28;105235;-76
2023/09/25 04:46:12;;;;;;;2.93;2.70;;;;;;;6.88;100.00;97046.47;4991216;28;102733;-75
2023/09/25 04:48:40;;;;;;;4.93;3.50;;;;;;;6.84;100.00;97045.25;4973773;28;101817;-76
2023/09/25 04:51:08;;;;;;;3.30;3.00;;;;;;;6.88;100.00;97044.59;4973564;28;105047;-76
2023/09/25 04:53:37;;;;;;;3.03;2.80;;;;;;;6.85;100.00;97044.22;4976530;28;105148;-76
2023/09/25 04:56:05;;;;;;;4.40;3.13;;;;;;;6.87;100.00;97042.19;4983150;28;104570;-76
2023/09/25 04:58:32;;;;;;;3.00;2.80;;;;;;;6.91;100.00;97053.94;5009594;28;104026;-76
2023/09/25 05:00:59;;;;;;;3.60;3.30;;;;;;;6.86;100.00;97048.47;5010196;28;102281;-76
2023/09/25 05:03:26;;;;;;;4.73;3.83;;;;;;;6.83;100.00;97051.56;4993462;28;103789;-76
2023/09/25 05:05:54;;;;;;;7.07;4.13;;;;;;;6.94;100.00;97053.53;5009264;28;105681;-76
2023/09/25 05:08:23;;;;;;;5.67;4.30;;;;;;;7.09;100.00;97046.94;4993525;28;101896;-76
2023/09/25 05:10:50;;;;;;;6.63;4.90;;;;;;;7.06;100.00;97055.31;4993191;28;105823;-76
2023/09/25 05:13:17;;;;;;;7.17;5.37;;;;;;;7.08;100.00;97055.91;4992894;28;105419;-76
2023/09/25 05:15:44;;;;;;;8.13;5.73;;;;;;;7.18;100.00;97055.44;4997056;28;102027;-76
2023/09/25 05:18:11;;;;;;;20.50;6.47;;;;;;;7.19;100.00;97057.06;5009646;28;105383;-76
2023/09/25 05:20:38;;;;;;;5.47;4.97;;;;;;;7.17;100.00;97056.47;5009314;28;101832;-76
2023/09/25 05:23:07;;;;;;;6.47;5.53;;;;;;;7.23;100.00;97055.59;5010002;28;105488;-76
2023/09/25 05:25:34;;;;;;;6.63;5.40;;;;;;;7.19;100.00;97065.00;4992246;28;103906;-76
2023/09/25 05:28:00;;;;;;;6.70;5.97;;;;;;;7.17;100.00;97059.94;5011129;28;102007;-76
2023/09/25 05:30:31;;;;;;;12.47;6.90;;;;;;;7.25;100.00;97064.16;5009638;28;104066;-76
2023/09/25 05:32:58;;;;;;;26.03;7.97;;;;;;;7.22;100.00;97061.94;4992380;28;105837;-76
2023/09/25 05:35:26;;;;;;;8.40;7.20;;;;;;;7.34;100.00;97065.50;4993151;28;102175;-76
2023/09/25 05:37:52;;;;;;;8.07;6.50;;;;;;;7.40;100.00;97075.22;4996564;28;105811;-76
2023/09/25 05:40:21;;;;;;;7.67;6.37;;;;;;;7.54;100.00;97071.47;5010282;28;102047;-76
2023/09/25 05:42:49;;;;;;;7.77;6.77;;;;;;;7.69;100.00;97067.50;4993771;28;105025;-76
2023/09/25 05:45:18;;;;;;;8.37;7.47;;;;;;;7.78;100.00;97068.84;5009595;28;105626;-76
2023/09/25 05:47:47;;;;;;;11.37;8.13;;;;;;;7.86;100.00;97065.91;5010063;28;101886;-76
2023/09/25 05:50:15;;;;;;;9.20;8.30;;;;;;;7.96;100.00;97060.16;4990988;28;104123;-76
2023/09/25 05:52:43;;;;;;;11.03;8.77;;;;;;;8.10;100.00;97057.16;4973034;28;105324;-76
2023/09/25 05:55:11;;;;;;;18.97;7.90;;;;;;;8.08;100.00;97058.41;4990135;28;102049;-76
2023/09/25 05:57:41;;;;;;;8.57;7.37;;;;;;;8.06;100.00;97060.44;5006927;28;102921;-76
2023/09/25 06:00:12;;;;;;;7.97;7.27;;;;;;;8.14;100.00;97058.34;4992861;28;105371;-76
2023/09/25 06:02:39;;;;;;;8.30;6.97;;;;;;;8.27;100.00;97058.25;4989994;28;104991;-76
2023/09/25 06:05:07;;;;;;;8.60;7.30;;;;;;;8.33;100.00;97057.34;4989473;28;104396;-76
2023/09/25 06:07:35;;;;;;;10.83;9.70;;;;;;;8.30;100.00;97057.00;4989826;28;102281;-76
2023/09/25 06:10:02;;;;;;;9.67;8.07;;;;;;;8.19;100.00;97065.63;5006386;28;105274;-76
2023/09/25 06:12:29;;;;;;;12.67;7.93;;;;;;;8.26;100.00;97069.06;4990580;28;102755;-76
2023/09/25 06:14:58;;;;;;;8.60;7.80;;;;;;;8.32;100.00;97065.53;4989975;28;101791;-76
2023/09/25 06:17:26;;;;;;;7.53;6.83;;;;;;;8.44;100.00;97063.75;5006269;28;104811;-76
2023/09/25 06:19:54;;;;;;;7.73;7.03;;;;;;;8.58;100.00;97070.53;4989144;28;105178;-76
2023/09/25 06:22:21;;;;;;;7.83;6.97;;;;;;;8.78;100.00;97068.50;4992695;28;102204;-76
2023/09/25 06:24:49;;;;;;;7.27;6.63;;;;;;;8.91;100.00;97063.84;5004759;28;105010;-76
2023/09/25 06:27:16;;;;;;;7.30;6.67;;;;;;;8.96;100.00;97063.97;4989083;28;102096;-76
2023/09/25 06:29:44;;;;;;;13.47;11.00;;;;;;;9.09;100.00;97060.31;4988865;28;104790;-76
2023/09/25 06:32:12;;;;;;;11.77;9.70;;;;;;;9.05;100.00;97059.97;4988167;28;104325;-76
2023/09/25 06:34:40;;;;;;;8.93;8.03;;;;;;;9.17;100.00;97060.00;5008751;28;101931;-76
2023/09/25 06:37:07;;;;;;;9.23;7.37;;;;;;;9.42;100.00;97064.13;4992562;28;104336;-76
2023/09/25 06:39:34;;;;;;;8.47;7.30;;;;;;;9.54;100.00;97053.56;4991913;28;105153;-76
2023/09/25 06:42:01;;;;;;;8.07;7.13;;;;;;;9.67;100.00;97050.69;5012470;28;101933;-76
2023/09/25 06:44:28;;;;;;;8.03;7.23;;;;;;;9.75;100.00;97053.03;5008444;28;105117;-76
2023/09/25 06:46:55;;;;;;;8.10;7.40;;;;;;;9.70;100.00;97052.91;4992172;28;101940;-76
2023/09/25 06:49:24;;;;;;;8.33;7.27;;;;;;;9.54;100.00;97049.03;4992380;28;105046;-76
2023/09/25 06:51:51;;;;;;;7.67;6.83;;;;;;;9.54;100.00;97061.53;4991741;28;105213;-76
2023/09/25 06:54:18;;;;;;;7.17;6.47;;;;;;;9.44;100.00;97053.31;4992299;28;102016;-76
2023/09/25 06:56:48;;;;;;;7.00;6.30;;;;;;;9.60;100.00;97057.97;4992088;28;105271;-76
2023/09/25 06:59:15;;;;;;;7.50;6.83;;;;;;;9.81;100.00;97054.78;4991270;28;105668;-76
2023/09/25 07:01:41;;;;;;;7.37;6.33;;;;;;;10.16;100.00;97055.63;4993338;28;101892;-76
2023/09/25 07:04:09;;;;;;;7.37;6.67;;;;;;;10.43;100.00;97046.13;4994687;28;104874;-76
2023/09/25 07:06:37;;;;;;;6.90;5.87;;;;;;;10.55;100.00;97047.75;4991911;28;102027;-76
2023/09/25 07:09:08;;;;;;;6.90;5.97;;;;;;;10.63;100.00;97047.34;4991640;28;105187;-76
2023/09/25 07:11:35;;;;;;;7.33;5.70;;;;;;;10.55;100.00;97044.25;4991211;28;105757;-76
2023/09/25 07:14:03;;;;;;;4.77;4.37;;;;;;;10.77;100.00;97046.06;4991847;28;101935;-76
2023/09/25 07:16:31;;;;;;;4.87;4.00;;;;;;;10.80;100.00;97032.28;4991728;28;105369;-76
2023/09/25 07:18:59;;;;;;;4.63;3.80;;;;;;;10.96;100.00;97042.19;4991103;28;105230;-76
2023/09/25 07:21:26;;;;;;;6.23;3.97;;;;;;;11.10;100.00;97040.06;4991872;28;102008;-76
2023/09/25 07:23:54;;;;;;;4.33;3.70;;;;;;;11.21;100.00;97039.19;4991355;28;105218;-76
2023/09/25 07:26:21;;;;;;;4.30;3.90;;;;;;;11.37;100.00;97038.44;4994656;28;105567;-76
2023/09/25 07:28:48;;;;;;;4.10;3.80;;;;;;;11.58;100.00;97051.06;4991770;28;104960;-76
2023/09/25 07:31:19;;;;;;;5.20;3.93;;;;;;;11.76;100.00;97048.19;4990761;28;105657;-76
2023/09/25 07:33:47;;;;;;;4.20;3.90;;;;;;;11.85;100.00;97046.75;5007750;28;101886;-76
2023/09/25 07:36:18;;;;;;;5.87;4.07;;;;;;;12.03;100.00;97047.31;5008209;28;104906;-76
2023/09/25 07:38:45;;;;;;;3.97;3.30;;;;;;;12.14;100.00;97034.94;4990968;28;105349;-76
2023/09/25 07:41:13;;;;;;;5.07;3.53;;;;;;;12.26;100.00;97044.47;4992710;28;101863;-76
2023/09/25 07:43:41;;;;;;;4.27;3.47;;;;;;;12.03;100.00;97049.16;4991292;28;105506;-76
2023/09/25 07:46:09;;;;;;;3.97;3.67;;;;;;;12.45;100.00;97050.34;4990648;28;105882;-76
2023/09/25 07:48:38;;;;;;;4.67;2.90;;;;;;;12.42;100.00;97042.84;4994906;28;101938;-76
2023/09/25 07:51:07;;;;;;;3.10;2.90;;;;;;;12.57;100.00;97043.03;4990733;28;105672;-76
2023/09/25 07:53:34;;;;;;;3.50;3.20;;;;;;;12.82;100.00;97043.38;4991377;28;101877;-76
2023/09/25 07:56:01;;;;;;;2.70;2.50;;;;;;;13.09;100.00;97038.91;4991227;28;105357;-76
2023/09/25 07:58:29;;;;;;;6.20;2.90;;;;;;;13.29;100.00;97039.13;4990442;28;105818;-76
2023/09/25 08:01:00;;;;;;;3.20;2.60;;;;;;;13.43;100.00;97032.31;4991047;28;101966;-76
2023/09/25 08:03:27;;;;;;;2.60;2.40;;;;;;;13.60;100.00;97041.03;4991255;28;105221;-76
2023/09/25 08:05:54;;;;;;;2.30;2.20;;;;;;;13.66;100.00;97032.00;5007068;28;104062;-76
2023/09/25 08:08:21;;;;;;;2.80;2.47;;;;;;;13.90;100.00;97026.06;4991016;28;102110;-76
2023/09/25 08:10:49;;;;;;;2.37;2.17;;;;;;;13.70;100.00;97025.91;4993795;28;104813;-76
2023/09/25 08:13:18;;;;;;;3.90;2.60;;;;;;;13.78;100.00;97024.63;4990745;28;101964;-76
2023/09/25 08:15:47;;;;;;;2.57;2.37;;;;;;;13.24;100.00;97021.19;4990740;28;105401;-76
2023/09/25 08:18:14;;;;;;;2.30;2.10;;;;;;;13.70;100.00;97020.56;4991442;28;102808;-75
2023/09/25 08:20:40;;;;;;;2.77;2.27;;;;;;;14.06;100.00;97022.44;4990912;28;101915;-75
2023/09/25 08:23:07;;;;;;;3.40;2.37;;;;;;;14.42;100.00;97020.84;4990801;28;104192;-75
2023/09/25 08:25:34;;;;;;;2.77;2.27;;;;;;;14.47;100.00;97015.53;4989817;28;105485;-75
2023/09/25 08:28:02;;;;;;;4.10;2.00;;;;;;;14.68;100.00;97018.06;4990572;28;101935;-75
2023/09/25 08:30:28;;;;;;;2.13;1.93;;;;;;;14.71;100.00;97016.72;4990851;28;104173;-75
2023/09/25 08:32:57;;;;;;;2.73;2.47;;;;;;;14.96;100.00;97016.81;4993514;28;105135;-75
2023/09/25 08:35:24;;;;;;;2.57;1.80;;;;;;;14.91;100.00;97022.97;4990445;28;103803;-75
2023/09/25 08:37:51;;;;;;;2.40;1.90;;;;;;;15.26;100.00;97020.41;4990112;28;105724;-75
2023/09/25 08:40:19;;;;;;;2.10;1.90;;;;;;;15.43;100.00;97023.69;4991874;28;102261;-75
2023/09/25 08:42:47;;;;;;;2.50;1.70;;;;;;;15.75;100.00;97012.75;4990409;28;105550;-75
2023/09/25 08:45:16;;;;;;;1.70;1.60;;;;;;;15.56;100.00;97012.47;4989740;28;105561;-75
2023/09/25 08:47:44;;;;;;;1.77;1.67;;;;;;;15.86;100.00;97009.00;4990475;28;101966;-75
2023/09/25 08:50:12;;;;;;;1.60;1.43;;;;;;;15.66;100.00;97004.44;4990526;28;105410;-75
2023/09/25 08:52:41;;;;;;;2.13;1.40;;;;;;;15.91;100.00;97006.31;4993025;28;105165;-75
2023/09/25 08:55:09;;;;;;;1.50;1.40;;;;;;;15.74;100.00;97008.44;5006316;28;105749;-75
2023/09/25 08:57:38;;;;;;;2.13;1.10;;;;;;;15.74;100.00;97005.75;4990742;28;102789;-75
2023/09/25 09:00:11;;;;;;;2.60;1.30;;;;;;;15.33;100.00;97014.81;4990529;28;102017;-75
2023/09/25 09:02:41;;;;;;;1.53;1.43;;;;;;;15.60;100.00;97007.38;4990356;28;104970;-75
2023/09/25 09:05:09;;;;;;;1.40;1.30;;;;;;;16.02;100.00;97010.59;4989613;28;106062;-75
2023/09/25 09:07:37;;;;;;;1.60;1.50;;;;;;;15.92;100.00;97003.34;4990072;28;101969;-75
2023/09/25 09:10:04;;;;;;;3.43;1.70;;;;;;;15.91;100.00;97007.09;4990196;28;105119;-75
2023/09/25 09:12:31;;;;;;;1.87;1.37;;;;;;;15.57;100.00;97000.66;4990800;28;102241;-75
2023/09/25 09:14:58;;;;;;;1.43;1.33;;;;;;;15.93;100.00;96996.13;4993256;28;102072;-75
2023/09/25 09:17:28;;;;;;;2.27;1.50;;;;;;;15.98;100.00;96999.59;4989335;28;105073;-75
2023/09/25 09:19:54;;;;;;;1.50;1.40;;;;;;;16.11;100.00;96987.50;4989991;28;102068;-75
2023/09/25 09:22:22;;;;;;;1.53;1.20;;;;;;;16.36;100.00;96982.91;4990085;28;105051;-75
2023/09/25 09:24:52;;;;;;;1.57;1.20;;;;;;;16.65;100.00;96988.50;5005605;28;105680;-75
2023/09/25 09:27:21;;;;;;;1.73;1.43;;;;;;;16.93;100.00;96996.72;4991166;28;101730;-75
2023/09/25 09:29:52;;;;;;;4.00;1.33;;;;;;;17.29;100.00;96994.66;4989848;28;105080;-75
2023/09/25 09:32:19;;;;;;;1.30;1.20;;;;;;;17.45;100.00;96996.19;4989148;28;104058;-75
2023/09/25 09:34:49;;;;;;;1.33;1.20;;;;;;;17.71;100.00;96995.75;4989244;28;101969;-75
2023/09/25 09:37:15;;;;;;;2.63;1.63;;;;;;;17.65;100.00;96990.69;4992586;28;104082;-75
2023/09/25 09:39:45;;;;;;;1.43;1.33;;;;;;;16.93;100.00;96988.66;4989529;28;101898;-75
2023/09/25 09:42:15;;;;;;;1.27;1.20;;;;;;;17.26;100.00;96984.44;4989484;28;105685;-75
2023/09/25 09:44:43;;;;;;;1.33;1.23;;;;;;;17.93;100.00;96973.78;5005608;28;105588;-75
2023/09/25 09:47:10;;;;;;;1.33;1.20;;;;;;;18.23;100.00;96977.00;4989617;28;101968;-75
2023/09/25 09:49:39;;;;;;;1.30;1.20;;;;;;;17.83;100.00;96987.31;4989573;28;105134;-75
2023/09/25 09:52:07;;;;;;;1.40;1.30;;;;;;;17.75;100.00;96985.22;5005406;28;105192;-75
2023/09/25 09:54:37;;;;;;;1.23;1.10;;;;;;;17.06;100.00;96984.56;4989492;28;102022;-75
2023/09/25 09:57:04;;;;;;;1.50;1.40;;;;;;;17.48;100.00;96985.69;4989429;28;105692;-75
2023/09/25 09:59:33;;;;;;;2.57;1.30;;;;;;;18.08;100.00;96973.63;4992247;28;105370;-75
2023/09/25 10:02:02;;;;;;;2.37;1.10;;;;;;;18.79;100.00;96980.72;4989448;28;103771;-75
2023/09/25 10:04:30;;;;;;;1.33;1.23;;;;;;;18.72;100.00;96974.06;4988581;28;105384;-75
2023/09/25 10:07:02;;;;;;;1.30;1.20;;;;;;;18.98;100.00;96975.38;4972615;28;101921;-75
2023/09/25 10:09:31;;;;;;;1.20;1.10;;;;;;;19.21;100.00;96971.81;4989009;28;103838;-75
2023/09/25 10:11:58;;;;;;;1.97;1.20;;;;;;;19.50;100.00;96975.25;4988484;28;105520;-75
2023/09/25 10:14:29;;;;;;;1.50;1.23;;;;;;;19.26;100.00;96980.69;5005767;28;101876;-75
2023/09/25 10:17:02;;;;;;;0.93;0.93;;;;;;;19.35;100.00;96983.53;4989201;28;105800;-75
2023/09/25 10:19:48;;;;;;;1.60;1.20;;;;;;;18.43;100.00;96973.34;4988235;28;105938;-75
2023/09/25 10:22:20;;;;;;;1.37;1.27;;;;;;;18.82;100.00;96977.47;4992621;28;101908;-75
2023/09/25 10:24:48;;;;;;;1.57;1.00;;;;;;;19.43;100.00;96974.78;4988258;28;105900;-75
2023/09/25 10:27:17;;;;;;;1.30;1.20;;;;;;;19.74;100.00;96967.84;4989003;28;101946;-75
2023/09/25 10:30:06;;;;;;;1.27;1.10;;;;;;;20.24;100.00;96972.41;4990413;28;102686;-75
2023/09/25 10:32:38;;;;;;;1.60;1.10;;;;;;;20.35;100.00;96960.34;4988128;28;105925;-75
2023/09/25 10:35:36;;;;;;;1.07;1.00;;;;;;;20.30;100.00;96961.22;4988602;28;101996;-75
2023/09/25 10:38:11;;;;;;;2.10;1.60;;;;;;;20.58;100.00;96968.28;5005606;28;105533;-75
2023/09/25 10:40:39;;;;;;;2.00;1.20;;;;;;;20.66;100.00;96969.47;4988100;28;105421;-75
2023/09/25 10:43:06;;;;;;;1.50;1.20;;;;;;;20.38;100.00;96965.94;4988920;28;102141;-75
2023/09/25 10:45:35;;;;;;;1.23;1.10;;;;;;;20.65;100.00;96971.38;5008338;28;104966;-75
2023/09/25 10:48:04;;;;;;;1.43;1.30;;;;;;;20.80;100.00;96970.25;4988880;28;101905;-75
2023/09/25 10:50:31;;;;;;;1.43;1.33;;;;;;;20.82;100.00;96960.75;4988709;28;105105;-75
2023/09/25 10:52:58;;;;;;;1.60;1.10;;;;;;;20.64;100.00;96963.56;5004387;28;105474;-75
2023/09/25 10:55:25;;;;;;;2.97;1.20;;;;;;;20.85;100.00;96967.47;4988784;28;102039;-75
2023/09/25 10:57:54;;;;;;;2.13;1.20;;;;;;;20.02;100.00;96970.34;5005409;28;105210;-75
2023/09/25 11:00:23;;;;;;;2.47;1.30;;;;;;;20.43;100.00;96965.84;4988153;28;105806;-75
2023/09/25 11:02:52;;;;;;;1.40;1.30;;;;;;;20.50;100.00;96965.47;4988709;28;102149;-75
2023/09/25 11:05:22;;;;;;;1.43;1.00;;;;;;;20.62;100.00;96957.66;4991232;28;105339;-75
2023/09/25 11:07:49;;;;;;;1.30;1.20;;;;;;;20.52;100.00;96960.56;4988234;28;101905;-75
2023/09/25 11:10:16;;;;;;;1.00;1.00;;;;;;;20.79;100.00;96955.16;4988542;28;105075;-75
2023/09/25 11:12:47;;;;;;;1.30;1.20;;;;;;;21.05;100.00;96953.56;5004449;28;105475;-75
2023/09/25 11:15:17;;;;;;;1.47;0.93;;;;;;;21.16;100.00;96947.66;4988438;28;102049;-75
2023/09/25 11:17:46;;;;;;;1.40;1.30;;;;;;;21.34;100.00;96956.69;4989871;28;102583;-75
2023/09/25 11:20:15;;;;;;;1.50;1.20;;;;;;;21.20;100.00;96950.53;4991210;28;105528;-75
2023/09/25 11:22:43;;;;;;;1.33;1.23;;;;;;;21.50;100.00;96957.97;4991625;28;101875;-75
2023/09/25 11:25:12;;;;;;;2.40;1.20;;;;;;;21.65;100.00;96960.31;4991536;28;104024;-75